Time;durP1;ratioP1;P1;durP2;ratioP2;P2;SDS_P1;SDS_P2;PMS_P1;PMS_P2;Temp;Humidity;BMP_temperature;BMP_pressure;BME280_temperature;BME280_humidity;BME280_pressure;Samples;Min_cycle;Max_cycle;Signal;HPM_P1;HPM_P2
2023/07/03 00:00:33;;;;;;;19.88;12.60;;;;;;;17.28;65.95;98164.41;5014037;28;20096;-82
2023/07/03 00:02:58;;;;;;;25.25;14.02;;;;;;;17.47;66.47;98186.59;5025073;28;20037;-81
2023/07/03 00:05:24;;;;;;;24.67;12.30;;;;;;;17.12;66.68;98182.88;5015073;28;20473;-82
2023/07/03 00:07:50;;;;;;;30.05;14.85;;;;;;;17.13;67.85;98182.56;5028749;28;20071;-82
2023/07/03 00:10:16;;;;;;;22.17;13.52;;;;;;;17.29;66.04;98171.38;5023715;28;20527;-82
2023/07/03 00:12:42;;;;;;;19.92;12.00;;;;;;;17.11;68.77;98173.19;5020242;28;20123;-81
2023/07/03 00:15:08;;;;;;;20.83;11.85;;;;;;;17.27;65.51;98142.03;5024401;28;20037;-81
2023/07/03 00:17:33;;;;;;;23.85;14.05;;;;;;;17.40;66.62;98167.34;5009162;28;20059;-82
2023/07/03 00:19:59;;;;;;;23.20;13.32;;;;;;;17.59;64.88;98160.63;5027317;28;20120;-82
2023/07/03 00:22:25;;;;;;;24.08;13.02;;;;;;;17.36;67.68;98169.88;5018821;28;21323;-82
2023/07/03 00:24:50;;;;;;;28.15;13.60;;;;;;;17.38;66.85;98159.56;5032421;28;20039;-82
2023/07/03 00:27:16;;;;;;;22.90;12.82;;;;;;;17.76;64.78;98171.50;5023764;28;20420;-82
2023/07/03 00:29:42;;;;;;;24.73;12.43;;;;;;;17.46;65.64;98166.09;5028979;28;20028;-81
2023/07/03 00:32:07;;;;;;;24.55;12.30;;;;;;;17.71;65.02;98152.75;5005108;28;20116;-82
2023/07/03 00:34:33;;;;;;;23.98;13.40;;;;;;;17.79;64.37;98178.19;5031844;28;20025;-82
2023/07/03 00:36:58;;;;;;;20.45;12.40;;;;;;;17.83;64.20;98181.88;5025000;28;20087;-82
2023/07/03 00:39:24;;;;;;;24.98;11.32;;;;;;;17.68;64.47;98182.28;5022058;28;20056;-81
2023/07/03 00:41:49;;;;;;;25.77;13.50;;;;;;;17.54;64.85;98170.78;5026850;28;20029;-82
2023/07/03 00:44:18;;;;;;;25.13;12.57;;;;;;;17.51;65.42;98174.91;5025746;28;20053;-81
2023/07/03 00:46:47;;;;;;;19.08;11.57;;;;;;;17.57;64.98;98165.56;5027461;28;20053;-81
2023/07/03 00:49:13;;;;;;;23.08;12.93;;;;;;;17.69;64.78;98173.84;5028235;28;20378;-83
2023/07/03 00:51:42;;;;;;;18.60;11.60;;;;;;;17.71;64.83;98171.63;5047860;28;20045;-82
2023/07/03 00:54:08;;;;;;;23.27;13.25;;;;;;;17.61;65.41;98180.03;5012060;28;20041;-82
2023/07/03 00:56:34;;;;;;;22.88;12.52;;;;;;;17.48;65.37;98174.66;5033790;28;20032;-80
2023/07/03 00:59:01;;;;;;;18.83;12.07;;;;;;;17.62;65.20;98178.13;5031421;28;20120;-82
2023/07/03 01:01:36;;;;;;;27.38;14.32;;;;;;;17.41;66.00;98180.50;5033104;28;20028;-81
2023/07/03 01:04:13;;;;;;;22.73;12.60;;;;;;;17.44;64.72;98158.31;5025411;28;20489;-82
2023/07/03 01:06:51;;;;;;;22.00;13.63;;;;;;;17.47;65.14;98171.19;5041952;28;20117;-82
2023/07/03 01:09:20;;;;;;;22.05;12.65;;;;;;;17.41;65.43;98158.16;5018888;28;20034;-82
2023/07/03 01:11:47;;;;;;;21.65;11.68;;;;;;;17.54;64.69;98176.19;5022396;28;20049;-81
2023/07/03 01:14:17;;;;;;;26.05;13.65;;;;;;;17.51;64.79;98166.81;5021938;28;20048;-81
2023/07/03 01:16:44;;;;;;;20.63;13.32;;;;;;;17.52;65.00;98181.06;5023453;28;20033;-82
2023/07/03 01:19:14;;;;;;;28.05;13.48;;;;;;;17.55;64.85;98178.56;5027563;28;20032;-81
2023/07/03 01:21:51;;;;;;;24.70;13.48;;;;;;;17.45;65.20;98181.47;5030681;28;20680;-81
2023/07/03 01:24:25;;;;;;;27.45;14.27;;;;;;;17.36;65.15;98179.84;5026217;28;20025;-81
2023/07/03 01:26:51;;;;;;;21.50;13.00;;;;;;;17.35;65.42;98178.25;5021123;28;20025;-82
2023/07/03 01:29:17;;;;;;;27.55;13.52;;;;;;;17.19;65.28;98161.63;5019846;28;20397;-81
2023/07/03 01:31:43;;;;;;;24.25;13.75;;;;;;;17.26;65.58;98180.88;5005110;28;20036;-82
2023/07/03 01:34:09;;;;;;;29.60;14.98;;;;;;;17.24;65.57;98167.72;5019263;28;20112;-82
2023/07/03 01:36:35;;;;;;;23.90;13.98;;;;;;;17.24;65.21;98169.63;5005223;28;20613;-81
2023/07/03 01:39:02;;;;;;;24.17;13.43;;;;;;;17.20;65.48;98185.63;5022410;28;20030;-82
2023/07/03 01:41:29;;;;;;;27.80;13.88;;;;;;;17.12;65.50;98167.47;4992623;28;20033;-82
2023/07/03 01:43:55;;;;;;;26.75;14.00;;;;;;;17.10;65.29;98175.06;5024171;28;20025;-82
2023/07/03 01:46:22;;;;;;;27.85;14.13;;;;;;;16.96;65.82;98168.97;5031457;28;20163;-82
2023/07/03 01:48:48;;;;;;;26.08;14.02;;;;;;;16.95;65.97;98178.13;5026160;28;20044;-82
2023/07/03 01:51:21;;;;;;;23.33;13.70;;;;;;;17.01;65.62;98170.75;5031092;28;20025;-82
2023/07/03 01:54:05;;;;;;;23.35;12.95;;;;;;;17.14;65.76;98181.47;5028681;28;20033;-82
2023/07/03 01:56:35;;;;;;;23.73;12.63;;;;;;;17.10;65.29;98175.06;5036903;28;20079;-82
2023/07/03 01:59:10;;;;;;;21.55;13.90;;;;;;;17.00;65.50;98179.91;5026767;28;20037;-82
2023/07/03 02:02:15;;;;;;;25.90;14.13;;;;;;;16.58;67.04;98189.22;5037066;28;20022;-81
2023/07/03 02:05:16;;;;;;;27.58;13.93;;;;;;;16.77;66.90;98189.91;4995957;28;20139;-81
2023/07/03 02:07:43;;;;;;;28.42;14.68;;;;;;;16.50;67.06;98181.88;5035785;28;20036;-81
2023/07/03 02:10:09;;;;;;;26.98;15.73;;;;;;;16.56;66.26;98169.88;5028216;28;20068;-82
2023/07/03 02:12:35;;;;;;;35.05;14.95;;;;;;;16.48;66.79;98171.38;5024770;28;20096;-82
2023/07/03 02:15:03;;;;;;;23.98;13.25;;;;;;;16.67;66.06;98181.22;5009166;28;20033;-81
2023/07/03 02:17:28;;;;;;;24.60;13.80;;;;;;;16.74;66.12;98190.50;5007327;28;20044;-81
2023/07/03 02:19:54;;;;;;;22.67;12.90;;;;;;;16.72;66.06;98181.91;5021813;28;20029;-81
2023/07/03 02:22:20;;;;;;;25.15;14.25;;;;;;;16.88;65.86;98183.19;5012291;28;20040;-81
2023/07/03 02:24:45;;;;;;;27.17;13.65;;;;;;;16.71;66.23;98179.53;5028945;28;20022;-81
2023/07/03 02:27:10;;;;;;;26.05;13.63;;;;;;;16.73;66.19;98194.28;5011298;28;20416;-81
2023/07/03 02:29:36;;;;;;;34.03;15.82;;;;;;;16.54;66.46;98190.94;5039908;28;20393;-82
2023/07/03 02:32:01;;;;;;;28.70;13.98;;;;;;;16.67;66.74;98184.72;5013803;28;20032;-82
2023/07/03 02:34:28;;;;;;;23.63;13.35;;;;;;;16.67;65.94;98173.13;5019833;28;20322;-81
2023/07/03 02:36:58;;;;;;;29.95;12.90;;;;;;;16.63;66.05;98156.78;5025204;28;20255;-81
2023/07/03 02:39:24;;;;;;;25.60;12.70;;;;;;;16.74;66.36;98174.31;5007085;28;20160;-81
2023/07/03 02:41:49;;;;;;;31.33;13.68;;;;;;;16.52;67.16;98178.88;5024789;28;20033;-81
2023/07/03 02:44:15;;;;;;;22.17;12.85;;;;;;;16.69;66.31;98157.47;4986128;28;20025;-82
2023/07/03 02:46:41;;;;;;;37.58;15.18;;;;;;;16.39;66.55;98145.44;5023398;28;20026;-82
2023/07/03 02:49:07;;;;;;;23.95;11.55;;;;;;;16.61;66.60;98167.06;5012024;28;20029;-81
2023/07/03 02:51:32;;;;;;;22.08;11.70;;;;;;;16.49;66.33;98155.97;5040692;28;20128;-82
2023/07/03 02:53:58;;;;;;;28.27;14.52;;;;;;;16.71;66.07;98169.53;5020343;28;20037;-82
2023/07/03 02:56:23;;;;;;;24.25;12.48;;;;;;;16.77;65.82;98171.03;5024213;28;20039;-82
2023/07/03 02:58:49;;;;;;;29.30;12.38;;;;;;;16.35;66.43;98164.13;5027635;28;20055;-81
2023/07/03 03:01:14;;;;;;;28.92;12.68;;;;;;;15.96;66.84;98150.41;5027251;28;20065;-81
2023/07/03 03:03:40;;;;;;;23.05;11.98;;;;;;;16.46;66.67;98176.28;5009232;28;20119;-82
2023/07/03 03:06:05;;;;;;;28.85;11.88;;;;;;;16.47;66.09;98171.66;5025379;28;20117;-82
2023/07/03 03:08:31;;;;;;;20.00;11.40;;;;;;;16.35;65.67;98164.13;5023779;28;20477;-82
2023/07/03 03:10:57;;;;;;;24.25;10.27;;;;;;;16.30;64.94;98150.75;5026926;28;20025;-82
2023/07/03 03:13:22;;;;;;;21.75;9.23;;;;;;;16.20;65.52;98158.25;5029204;28;20017;-82
2023/07/03 03:15:48;;;;;;;25.73;9.77;;;;;;;16.25;65.27;98168.94;5026210;28;20571;-82
2023/07/03 03:18:13;;;;;;;23.50;9.70;;;;;;;16.23;64.92;98181.88;5023018;28;20053;-82
2023/07/03 03:20:39;;;;;;;21.80;8.52;;;;;;;15.85;63.89;98167.84;5018933;28;20033;-81
2023/07/03 03:23:05;;;;;;;23.70;8.75;;;;;;;16.10;64.71;98185.38;5006116;28;20060;-81
2023/07/03 03:25:30;;;;;;;15.98;8.57;;;;;;;16.14;64.22;98186.38;5021037;28;20101;-82
2023/07/03 03:27:58;;;;;;;27.20;8.93;;;;;;;16.01;63.02;98179.13;5005281;28;20087;-82
2023/07/03 03:30:24;;;;;;;17.55;7.53;;;;;;;16.18;64.06;98190.06;5023848;28;20044;-82
2023/07/03 03:32:49;;;;;;;18.45;7.40;;;;;;;16.06;63.50;98179.00;5021394;28;20976;-81
2023/07/03 03:35:15;;;;;;;27.60;7.10;;;;;;;16.20;63.42;98193.25;5025871;28;20037;-82
2023/07/03 03:37:40;;;;;;;20.05;7.32;;;;;;;15.86;63.40;98174.03;5038306;28;20076;-81
2023/07/03 03:40:08;;;;;;;19.30;6.60;;;;;;;15.78;62.55;98167.44;5020142;28;20034;-82
2023/07/03 03:42:34;;;;;;;15.18;6.40;;;;;;;15.75;63.06;98181.47;5022895;28;20025;-82
2023/07/03 03:45:00;;;;;;;11.75;6.70;;;;;;;16.01;63.53;98201.44;5024177;28;20488;-81
2023/07/03 03:47:25;;;;;;;23.23;6.65;;;;;;;16.08;63.39;98204.53;5025292;28;20029;-81
2023/07/03 03:49:52;;;;;;;17.52;5.82;;;;;;;16.02;62.98;98192.28;5024079;28;20029;-81
2023/07/03 03:52:17;;;;;;;19.77;6.22;;;;;;;15.97;63.13;98210.41;5025408;28;20029;-82
2023/07/03 03:54:43;;;;;;;25.15;6.35;;;;;;;15.65;63.29;98209.38;5046325;28;20036;-81
2023/07/03 03:57:08;;;;;;;13.38;6.65;;;;;;;16.04;63.44;98217.00;5025774;28;20053;-82
2023/07/03 03:59:34;;;;;;;24.00;7.18;;;;;;;16.08;62.52;98206.41;5028906;28;20064;-82
2023/07/03 04:01:59;;;;;;;19.50;5.88;;;;;;;15.93;63.18;98206.72;5022673;28;20033;-81
2023/07/03 04:04:24;;;;;;;19.63;6.65;;;;;;;16.09;62.76;98206.13;5020449;28;20049;-81
2023/07/03 04:06:52;;;;;;;19.13;6.57;;;;;;;16.08;62.08;98174.91;5003464;28;20088;-82
2023/07/03 04:09:17;;;;;;;17.80;5.85;;;;;;;16.18;62.24;98190.88;5028606;28;20508;-83
2023/07/03 04:11:43;;;;;;;14.63;6.15;;;;;;;16.29;62.52;98204.94;5022237;28;20108;-83
2023/07/03 04:14:08;;;;;;;14.52;5.70;;;;;;;16.30;62.13;98191.16;5017846;28;20029;-83
2023/07/03 04:16:34;;;;;;;14.57;5.35;;;;;;;16.46;62.08;98207.78;5006951;28;20070;-83
2023/07/03 04:19:01;;;;;;;12.63;5.05;;;;;;;16.50;61.86;98200.72;5009763;28;23192;-83
2023/07/03 04:21:26;;;;;;;15.35;6.03;;;;;;;16.32;61.98;98217.78;5025697;28;20049;-83
2023/07/03 04:23:51;;;;;;;18.48;5.95;;;;;;;16.30;62.50;98203.81;5029679;28;20507;-83
2023/07/03 04:26:17;;;;;;;15.95;5.47;;;;;;;16.24;61.71;98203.13;5022711;28;20061;-82
2023/07/03 04:28:42;;;;;;;12.95;5.57;;;;;;;16.21;62.37;98206.41;5023811;28;20045;-82
2023/07/03 04:31:08;;;;;;;12.80;5.45;;;;;;;15.93;63.15;98210.22;5011780;28;20728;-83
2023/07/03 04:33:33;;;;;;;22.35;5.45;;;;;;;16.07;62.46;98224.47;5010723;28;20391;-82
2023/07/03 04:35:59;;;;;;;15.38;5.75;;;;;;;16.23;62.44;98219.56;5024647;28;20029;-82
2023/07/03 04:38:25;;;;;;;13.75;5.38;;;;;;;16.12;61.92;98204.75;5016143;28;20037;-82
2023/07/03 04:40:53;;;;;;;15.07;4.90;;;;;;;16.37;61.70;98223.88;5034512;28;20029;-82
2023/07/03 04:43:18;;;;;;;17.67;5.30;;;;;;;16.30;61.94;98226.16;5032879;28;20033;-82
2023/07/03 04:45:50;;;;;;;11.38;4.50;;;;;;;16.25;62.28;98233.56;5021470;28;20029;-82
2023/07/03 04:48:16;;;;;;;18.65;6.95;;;;;;;16.31;61.52;98235.03;5019121;28;20135;-82
2023/07/03 04:50:42;;;;;;;12.75;5.40;;;;;;;16.20;61.77;98215.59;5020432;28;20025;-83
2023/07/03 04:53:08;;;;;;;15.13;5.70;;;;;;;16.21;61.84;98216.38;5024841;28;20063;-81
2023/07/03 04:55:35;;;;;;;15.15;5.75;;;;;;;16.22;61.49;98210.72;5020471;28;20056;-83
2023/07/03 04:58:01;;;;;;;13.98;4.63;;;;;;;16.27;61.91;98232.13;5013179;28;20034;-81
2023/07/03 05:00:27;;;;;;;8.85;4.90;;;;;;;16.16;62.02;98224.59;4990425;28;20554;-81
2023/07/03 05:02:58;;;;;;;12.15;5.00;;;;;;;16.22;62.21;98244.91;5006511;28;20041;-82
2023/07/03 05:05:27;;;;;;;9.57;4.40;;;;;;;16.25;61.46;98223.56;5028823;28;20026;-82
2023/07/03 05:07:55;;;;;;;24.00;7.10;;;;;;;16.14;61.87;98222.16;5008740;28;20042;-83
2023/07/03 05:10:22;;;;;;;13.75;4.93;;;;;;;16.14;61.62;98216.78;5024831;28;22144;-81
2023/07/03 05:12:54;;;;;;;16.75;5.63;;;;;;;16.29;61.67;98237.25;5029802;28;20033;-82
2023/07/03 05:15:22;;;;;;;11.38;4.28;;;;;;;16.12;61.96;98226.28;5014513;28;20036;-82
2023/07/03 05:17:50;;;;;;;14.52;5.40;;;;;;;16.08;61.64;98207.22;5010840;28;20033;-83
2023/07/03 05:20:22;;;;;;;18.60;5.13;;;;;;;16.11;61.75;98217.41;5005404;28;20029;-82
2023/07/03 05:22:48;;;;;;;13.15;5.35;;;;;;;16.16;61.43;98227.28;5008410;28;20045;-82
2023/07/03 05:25:15;;;;;;;19.67;5.55;;;;;;;16.13;61.63;98238.63;5029720;28;20043;-82
2023/07/03 05:27:42;;;;;;;15.52;5.30;;;;;;;15.72;62.29;98204.41;5013342;28;20110;-82
2023/07/03 05:30:08;;;;;;;18.02;5.25;;;;;;;16.03;61.88;98241.53;5028746;28;20033;-82
2023/07/03 05:32:34;;;;;;;16.83;5.20;;;;;;;15.96;61.93;98233.03;5034320;28;20037;-82
2023/07/03 05:35:02;;;;;;;17.50;6.05;;;;;;;16.12;61.88;98245.91;4994238;28;20396;-81
2023/07/03 05:37:28;;;;;;;19.40;5.95;;;;;;;16.16;62.38;98249.59;5030730;28;20029;-81
2023/07/03 05:39:53;;;;;;;12.27;4.65;;;;;;;16.28;61.68;98239.13;5034225;28;20457;-81
2023/07/03 05:42:19;;;;;;;17.98;4.88;;;;;;;16.15;61.81;98221.09;5025869;28;20022;-81
2023/07/03 05:44:46;;;;;;;12.68;4.65;;;;;;;16.24;61.56;98227.38;5028869;28;20029;-81
2023/07/03 05:47:12;;;;;;;20.25;4.93;;;;;;;16.33;61.26;98246.31;5026275;28;20033;-80
2023/07/03 05:49:38;;;;;;;20.52;5.80;;;;;;;16.41;60.88;98237.53;5033790;28;20037;-81
2023/07/03 05:52:04;;;;;;;18.88;4.65;;;;;;;16.40;61.47;98252.88;4997424;28;20040;-82
2023/07/03 05:54:29;;;;;;;17.35;5.35;;;;;;;16.53;60.91;98262.09;5029377;28;20087;-81
2023/07/03 05:57:07;;;;;;;16.98;5.93;;;;;;;16.31;60.94;98226.97;5032013;28;20029;-81
2023/07/03 05:59:34;;;;;;;12.52;4.93;;;;;;;16.44;61.13;98237.75;5026183;28;20030;-81
2023/07/03 06:02:03;;;;;;;17.42;5.97;;;;;;;16.39;60.73;98248.59;4986726;28;20441;-80
2023/07/03 06:04:29;;;;;;;16.88;6.05;;;;;;;16.61;60.35;98250.59;5008650;28;20029;-80
2023/07/03 06:06:55;;;;;;;19.25;5.53;;;;;;;16.61;60.72;98257.88;5024719;28;20036;-80
2023/07/03 06:09:25;;;;;;;17.38;5.97;;;;;;;16.58;61.21;98261.19;5021872;28;20030;-83
2023/07/03 06:11:50;;;;;;;24.00;5.68;;;;;;;16.40;62.00;98258.28;5027785;28;20044;-83
2023/07/03 06:14:37;;;;;;;22.23;5.47;;;;;;;16.61;60.98;98255.19;5031313;28;20025;-84
2023/07/03 06:17:09;;;;;;;17.83;5.75;;;;;;;16.78;60.51;98261.56;5041734;28;20033;-82
2023/07/03 06:19:35;;;;;;;11.90;4.72;;;;;;;16.77;61.51;98262.66;5023592;28;20033;-80
2023/07/03 06:22:00;;;;;;;19.52;5.03;;;;;;;16.83;60.96;98258.75;5020102;28;20032;-80
2023/07/03 06:24:26;;;;;;;20.38;5.32;;;;;;;16.88;60.50;98253.25;5028808;28;20026;-82
2023/07/03 06:27:11;;;;;;;16.33;5.13;;;;;;;16.80;61.20;98264.75;5048128;28;20105;-83
2023/07/03 06:29:36;;;;;;;19.50;6.90;;;;;;;16.85;61.08;98250.34;5027335;28;20353;-82
2023/07/03 06:32:27;;;;;;;18.02;6.15;;;;;;;16.90;60.39;98255.66;5052542;28;20067;-81
2023/07/03 06:34:53;;;;;;;20.00;6.15;;;;;;;16.96;60.02;98263.31;5034376;28;20097;-82
2023/07/03 06:37:18;;;;;;;16.80;6.00;;;;;;;16.83;60.35;98222.91;5019723;28;20064;-81
2023/07/03 06:39:44;;;;;;;20.02;5.50;;;;;;;17.05;59.85;98260.69;5008858;28;20042;-81
2023/07/03 06:42:10;;;;;;;15.25;4.88;;;;;;;17.21;59.86;98254.63;5023689;28;20045;-81
2023/07/03 06:44:36;;;;;;;12.05;5.60;;;;;;;17.05;59.70;98237.22;5029598;28;20132;-81
2023/07/03 06:47:01;;;;;;;28.83;7.03;;;;;;;17.13;60.04;98254.56;5027401;28;20428;-81
2023/07/03 06:49:29;;;;;;;17.58;5.40;;;;;;;17.16;60.10;98251.28;5023302;28;20088;-81
2023/07/03 06:51:56;;;;;;;16.70;4.90;;;;;;;17.27;59.74;98273.41;5029635;28;20067;-81
2023/07/03 06:54:22;;;;;;;15.10;5.20;;;;;;;17.20;60.32;98249.56;5028144;28;20096;-81
2023/07/03 06:56:47;;;;;;;17.27;5.40;;;;;;;17.30;59.83;98270.09;5033449;28;20552;-81
2023/07/03 06:59:13;;;;;;;15.10;5.50;;;;;;;17.30;60.09;98254.69;5030945;28;20116;-81
2023/07/03 07:02:20;;;;;;;14.40;5.60;;;;;;;17.46;60.39;98276.72;5056900;28;20095;-81
2023/07/03 07:04:46;;;;;;;21.13;6.15;;;;;;;17.58;59.46;98266.97;5024862;28;20046;-81
2023/07/03 07:07:11;;;;;;;16.83;5.72;;;;;;;17.49;59.27;98273.41;5045980;28;20036;-83
2023/07/03 07:09:37;;;;;;;13.63;5.32;;;;;;;17.49;60.30;98260.72;5006360;28;20033;-82
2023/07/03 07:12:03;;;;;;;17.75;5.43;;;;;;;17.64;61.71;98268.47;4998664;28;20044;-82
2023/07/03 07:14:28;;;;;;;11.05;4.65;;;;;;;17.73;59.16;98258.53;4989515;28;20098;-82
2023/07/03 07:16:53;;;;;;;18.27;5.55;;;;;;;17.73;58.64;98260.44;5007763;28;20637;-82
2023/07/03 07:19:19;;;;;;;13.73;4.93;;;;;;;17.65;59.02;98253.06;5007923;28;20112;-82
2023/07/03 07:21:44;;;;;;;17.77;4.90;;;;;;;17.83;58.11;98260.97;4993811;28;20124;-81
2023/07/03 07:24:19;;;;;;;15.43;5.18;;;;;;;17.90;57.97;98269.41;5008930;28;20029;-82
2023/07/03 07:26:45;;;;;;;15.02;4.32;;;;;;;17.97;58.21;98267.06;5007282;28;20061;-81
2023/07/03 07:29:11;;;;;;;15.05;4.80;;;;;;;17.86;58.22;98260.34;5008933;28;20034;-82
2023/07/03 07:31:37;;;;;;;17.55;4.90;;;;;;;17.91;57.67;98246.69;5008806;28;22245;-82
2023/07/03 07:34:06;;;;;;;14.65;5.32;;;;;;;18.09;57.28;98271.09;4994097;28;20518;-82
2023/07/03 07:36:32;;;;;;;21.25;6.22;;;;;;;18.04;57.78;98249.63;5007283;28;20057;-81
2023/07/03 07:38:59;;;;;;;13.57;5.03;;;;;;;18.22;56.81;98270.19;5010265;28;20922;-82
2023/07/03 07:41:25;;;;;;;19.73;4.57;;;;;;;18.23;57.61;98245.59;5009081;28;20045;-82
2023/07/03 07:43:51;;;;;;;13.20;4.32;;;;;;;18.40;56.58;98272.66;5001350;28;20030;-82
2023/07/03 07:46:17;;;;;;;14.13;4.45;;;;;;;18.47;56.93;98266.81;5012067;28;20526;-82
2023/07/03 07:48:48;;;;;;;17.85;5.47;;;;;;;18.41;56.70;98249.13;5020430;28;20033;-81
2023/07/03 07:51:13;;;;;;;15.32;5.22;;;;;;;18.48;57.44;98241.38;5001330;28;20021;-81
2023/07/03 07:53:39;;;;;;;15.38;6.03;;;;;;;18.63;57.49;98257.19;5024360;28;20041;-81
2023/07/03 07:56:09;;;;;;;12.82;3.90;;;;;;;18.63;56.07;98257.19;5010889;28;20029;-81
2023/07/03 07:58:37;;;;;;;15.68;5.43;;;;;;;18.72;56.07;98257.19;5028054;28;20120;-82
2023/07/03 08:01:03;;;;;;;17.88;5.50;;;;;;;18.77;55.67;98255.13;5006579;28;20129;-84
2023/07/03 08:03:29;;;;;;;13.07;5.20;;;;;;;18.67;56.17;98250.03;5008413;28;20132;-82
2023/07/03 08:05:59;;;;;;;15.57;4.85;;;;;;;18.54;55.73;98242.84;5014393;28;20033;-84
2023/07/03 08:08:27;;;;;;;16.38;4.82;;;;;;;18.68;55.33;98251.59;4997702;28;20049;-84
2023/07/03 08:10:57;;;;;;;15.93;4.53;;;;;;;18.66;55.48;98256.53;4990475;28;20666;-82
2023/07/03 08:13:23;;;;;;;14.95;5.30;;;;;;;18.80;53.94;98259.91;5011831;28;20029;-81
2023/07/03 08:15:50;;;;;;;14.25;4.63;;;;;;;18.86;53.54;98274.88;5013873;28;20025;-82
2023/07/03 08:18:16;;;;;;;13.32;4.90;;;;;;;18.73;54.55;98266.88;5011760;28;20349;-81
2023/07/03 08:20:42;;;;;;;12.68;4.50;;;;;;;18.88;52.64;98266.44;5021384;28;20029;-81
2023/07/03 08:23:07;;;;;;;10.88;3.85;;;;;;;19.04;52.37;98270.28;5004074;28;20045;-82
2023/07/03 08:25:33;;;;;;;10.85;4.95;;;;;;;19.13;52.39;98260.25;4998406;28;20476;-81
2023/07/03 08:27:58;;;;;;;11.57;3.78;;;;;;;19.20;52.34;98261.34;5010761;28;20531;-82
2023/07/03 08:30:23;;;;;;;12.63;3.80;;;;;;;19.19;51.66;98256.28;5008541;28;20044;-82
2023/07/03 08:32:49;;;;;;;10.98;3.40;;;;;;;19.29;52.24;98264.06;5026904;28;20029;-82
2023/07/03 08:35:18;;;;;;;10.50;4.50;;;;;;;19.48;51.47;98263.78;5011473;28;20029;-81
2023/07/03 08:37:43;;;;;;;9.10;3.47;;;;;;;19.38;51.10;98252.16;5030136;28;20040;-82
2023/07/03 08:40:10;;;;;;;16.83;4.53;;;;;;;19.32;50.70;98266.94;5026512;28;20033;-81
2023/07/03 08:42:45;;;;;;;11.05;4.18;;;;;;;19.26;51.62;98272.84;5029725;28;20033;-82
2023/07/03 08:45:15;;;;;;;10.23;3.55;;;;;;;19.15;50.82;98277.78;5024323;28;20028;-81
2023/07/03 08:47:41;;;;;;;18.80;4.65;;;;;;;18.95;51.34;98272.97;5021517;28;20041;-81
2023/07/03 08:50:09;;;;;;;11.52;3.92;;;;;;;18.93;51.39;98272.50;5045707;28;20051;-83
2023/07/03 08:52:45;;;;;;;11.52;4.15;;;;;;;18.78;51.39;98277.56;5056249;28;20033;-81
2023/07/03 08:55:17;;;;;;;14.30;4.05;;;;;;;18.87;51.26;98286.50;5032006;28;20080;-79
2023/07/03 08:57:42;;;;;;;10.90;4.82;;;;;;;18.82;51.82;98295.53;5038396;28;20021;-79
2023/07/03 09:00:11;;;;;;;15.98;4.82;;;;;;;18.94;51.72;98284.91;5033072;28;20091;-79
2023/07/03 09:02:52;;;;;;;11.60;4.30;;;;;;;18.90;51.34;98283.94;5019630;28;20025;-79
2023/07/03 09:05:34;;;;;;;12.50;3.28;;;;;;;18.90;51.83;98285.84;5026619;28;20162;-80
2023/07/03 09:08:03;;;;;;;13.27;4.32;;;;;;;18.86;52.03;98284.88;5035550;28;20052;-83
2023/07/03 09:10:49;;;;;;;9.48;4.20;;;;;;;18.91;52.17;98282.84;5029443;28;20037;-82
2023/07/03 09:13:35;;;;;;;14.45;4.65;;;;;;;18.94;51.80;98298.41;5028202;28;20025;-82
2023/07/03 09:16:18;;;;;;;11.57;4.37;;;;;;;18.82;52.91;98295.53;5040799;28;20369;-82
2023/07/03 09:18:50;;;;;;;17.67;4.57;;;;;;;18.87;53.06;98314.31;5010000;28;20439;-82
2023/07/03 09:21:15;;;;;;;12.70;4.30;;;;;;;18.80;52.94;98299.66;5024909;28;20035;-81
2023/07/03 09:24:01;;;;;;;15.55;4.38;;;;;;;18.92;52.83;98321.47;5030020;28;20380;-82
2023/07/03 09:26:53;;;;;;;12.80;5.93;;;;;;;18.71;53.46;98305.06;5032753;28;20580;-82
2023/07/03 09:29:18;;;;;;;14.20;4.82;;;;;;;18.80;53.73;98316.69;5029728;28;20079;-83
2023/07/03 09:31:44;;;;;;;16.05;4.22;;;;;;;18.77;54.80;98330.84;5024913;28;20037;-83
2023/07/03 09:34:09;;;;;;;12.10;4.88;;;;;;;18.93;53.79;98329.28;5013305;28;20037;-81
2023/07/03 09:36:37;;;;;;;13.45;5.03;;;;;;;18.92;54.25;98322.28;5020799;28;20592;-81
2023/07/03 09:39:17;;;;;;;12.85;4.10;;;;;;;18.94;53.43;98320.06;5018052;28;20047;-81
2023/07/03 09:41:43;;;;;;;18.90;5.57;;;;;;;19.14;55.21;98324.88;5017865;28;21829;-80
2023/07/03 09:44:13;;;;;;;15.80;4.95;;;;;;;19.20;53.69;98320.88;5014271;28;20033;-81
2023/07/03 09:46:39;;;;;;;9.15;4.22;;;;;;;19.11;54.03;98308.47;5012833;28;20056;-80
2023/07/03 09:49:13;;;;;;;17.75;4.30;;;;;;;19.15;54.07;98312.94;5016328;28;20040;-80
2023/07/03 09:51:39;;;;;;;9.13;4.32;;;;;;;19.13;53.76;98317.84;5016256;28;20168;-80
2023/07/03 09:54:16;;;;;;;15.48;4.47;;;;;;;19.02;53.65;98307.66;5016198;28;20041;-80
2023/07/03 09:56:41;;;;;;;18.65;5.03;;;;;;;19.01;54.41;98333.09;5000028;28;20116;-80
2023/07/03 09:59:09;;;;;;;12.60;4.45;;;;;;;18.95;54.35;98324.38;5002650;28;20105;-80
2023/07/03 10:01:38;;;;;;;13.25;4.40;;;;;;;18.89;54.91;98331.03;5022430;28;21318;-80
2023/07/03 10:04:15;;;;;;;15.70;4.72;;;;;;;18.86;54.89;98326.25;5001334;28;21673;-80
2023/07/03 10:06:56;;;;;;;11.77;4.70;;;;;;;18.96;54.40;98323.25;5003372;28;20076;-80
2023/07/03 10:09:26;;;;;;;15.02;5.38;;;;;;;19.20;53.54;98325.50;5006340;28;21003;-80
2023/07/03 10:12:02;;;;;;;14.00;4.68;;;;;;;19.31;53.86;98333.00;5007588;28;20037;-81
2023/07/03 10:15:02;;;;;;;10.27;4.60;;;;;;;19.57;53.41;98324.13;5008170;28;21091;-80
2023/07/03 10:17:33;;;;;;;13.00;6.40;;;;;;;19.72;52.93;98329.06;5009807;28;20033;-80
2023/07/03 10:20:03;;;;;;;17.83;5.22;;;;;;;19.83;52.61;98324.91;5019013;28;20033;-81
2023/07/03 10:22:30;;;;;;;11.75;3.70;;;;;;;19.98;52.97;98327.91;5004767;28;20061;-80
2023/07/03 10:25:01;;;;;;;14.90;4.75;;;;;;;19.97;52.75;98314.66;5016557;28;20038;-80
2023/07/03 10:27:28;;;;;;;12.30;4.40;;;;;;;20.07;52.67;98338.72;5013572;28;20026;-80
2023/07/03 10:29:55;;;;;;;13.88;5.13;;;;;;;19.97;52.91;98320.06;5023003;28;20029;-81
2023/07/03 10:32:25;;;;;;;21.95;5.93;;;;;;;19.92;54.01;98333.81;5027960;28;20040;-79
2023/07/03 10:34:55;;;;;;;11.38;4.13;;;;;;;19.90;52.95;98327.88;5021244;28;20504;-81
2023/07/03 10:37:23;;;;;;;13.77;3.95;;;;;;;20.10;52.63;98341.56;5020480;28;20033;-80
2023/07/03 10:40:12;;;;;;;14.38;5.00;;;;;;;20.19;52.77;98331.50;5024568;28;20400;-80
2023/07/03 10:42:58;;;;;;;10.75;4.68;;;;;;;19.87;53.58;98334.78;5022648;28;21660;-81
2023/07/03 10:45:26;;;;;;;11.02;4.07;;;;;;;19.75;53.62;98337.31;5007815;28;20554;-81
2023/07/03 10:48:15;;;;;;;15.52;4.75;;;;;;;19.57;53.49;98326.84;5012481;28;20042;-81
2023/07/03 10:50:50;;;;;;;13.88;4.60;;;;;;;19.66;53.13;98325.69;5029633;28;20025;-81
2023/07/03 10:53:46;;;;;;;15.70;4.72;;;;;;;20.11;52.17;98329.63;5025444;28;20503;-81
2023/07/03 10:56:42;;;;;;;11.30;4.63;;;;;;;20.36;51.92;98327.16;5018464;28;20028;-79
2023/07/03 10:59:21;;;;;;;15.18;4.40;;;;;;;20.24;52.15;98338.69;5026592;28;20025;-81
2023/07/03 11:01:51;;;;;;;10.70;4.35;;;;;;;20.17;51.69;98335.66;5041413;28;20392;-81
2023/07/03 11:04:23;;;;;;;13.23;4.38;;;;;;;20.12;51.35;98336.63;5023058;28;20047;-81
2023/07/03 11:06:59;;;;;;;14.10;3.95;;;;;;;20.15;50.82;98338.69;5023758;28;20057;-82
2023/07/03 11:09:30;;;;;;;;;;;;;;;20.13;51.01;98332.81;5027429;28;20040;-81
2023/07/03 11:12:17;;;;;;;12.27;4.40;;;;;;;20.16;51.42;98342.19;5036198;28;19928;-81
2023/07/03 11:14:52;;;;;;;13.88;3.97;;;;;;;20.29;51.37;98335.03;5030715;28;20037;-81
2023/07/03 11:17:37;;;;;;;13.20;4.78;;;;;;;20.11;51.67;98321.50;5016893;28;20056;-81
2023/07/03 11:20:20;;;;;;;10.98;4.10;;;;;;;20.20;51.64;98329.59;5018320;28;20039;-81
2023/07/03 11:22:58;;;;;;;12.63;4.35;;;;;;;20.38;51.33;98325.72;5016100;28;20041;-80
2023/07/03 11:25:45;;;;;;;14.70;4.50;;;;;;;20.57;50.38;98334.28;5014740;28;20037;-81
2023/07/03 11:28:35;;;;;;;10.68;4.57;;;;;;;20.58;50.54;98330.44;5021504;28;20530;-81
2023/07/03 11:31:04;;;;;;;12.00;4.43;;;;;;;20.51;50.47;98324.72;5017666;28;20029;-80
2023/07/03 11:33:31;;;;;;;8.82;3.47;;;;;;;20.41;50.46;98335.94;5025757;28;20037;-81